Thunder radar more information blitzortung!


Radar de pluja more information rain snow radar


Visita la nostra xarxa de llocs de meteo:

Template documentation
and downloads

And another site



No particular awareness of the weather is required.    There are no Weather-warnings

Pagina Historial Weather Underground text

Diari Resum January 3, 2016 Unitats:  Mètric    Imperial   Tant
« Previous Dia
SegĂźent Dia »
Diari Setmana Mensual Anual Personalitzada
  Maxima: Minima: Media:
Temperatura: -17.8 °C -12.8 °C -11.8 °C
Punt de rosada: -17.8 °C -17.4 °C -16.2 °C
Humitat: Humidity % 50 % 58 %
Wind Speed: 0 km/h 3.1 km/h 13.7 km/h
RĂ fegues de vent: 0 km/h - -
Vent:- - WSW
Pression baro: 0 hPa 34063.2 hPa -
Precipitacions: 0 mm    
Historical Graphs
 
 
Dades de taula per January 3, 2016
Temps Temperatura Punt de rosada Pression baro Vent Wind Speed RĂ fegues de vent Humitat Rainfall Rate (Hourly)
-17.8 °C -17.8 °C 0 hPa Calm     Humidity % 0 mm
11:18 -12.8 °C -17.4 °C 34361.1 hPa WSW 3.1 km/h   56 % 0 mm
11:23 -12.8 °C -17.4 °C 34361.1 hPa WSW 3.7 km/h 3.7 km/h 56 % 0 mm
11:28 -12.8 °C -17.4 °C 34395 hPa WSW 3.1 km/h 3.7 km/h 56 % 0 mm
11:33 -12.7 °C -17.2 °C 34395 hPa SW 3.1 km/h   57 % 0 mm
11:38 -12.7 °C -17.2 °C 34395 hPa SW 6 km/h 6.8 km/h 57 % 0 mm
11:43 -12.6 °C -17.2 °C 34361.1 hPa SW 9 km/h 9 km/h 56 % 0 mm
11:48 -12.5 °C -17.1 °C 34361.1 hPa West 11.1 km/h 11.1 km/h 56 % 0 mm
11:53 -12.3 °C -17 °C 34361.1 hPa SW 6 km/h 6 km/h 56 % 0 mm
11:58 -12.3 °C -16.9 °C 34361.1 hPa WSW 9.3 km/h 9.3 km/h 56 % 0 mm
12:03 -12.2 °C -17 °C 34361.1 hPa West 6 km/h 6 km/h 55 % 0 mm
12:08 -12 °C -16.9 °C 34361.1 hPa West 11.9 km/h 11.9 km/h 54 % 0 mm
12:13 -11.8 °C -16.8 °C 34361.1 hPa WNW 11.9 km/h 11.9 km/h 54 % 0 mm
12:18 -11.8 °C -16.9 °C 34361.1 hPa SW 9 km/h 9 km/h 53 % 0 mm
12:23 -11.8 °C -16.9 °C 34361.1 hPa WSW 11.9 km/h 11.9 km/h 53 % 0 mm
12:28 -11.7 °C -17 °C 34327.3 hPa WSW 11.9 km/h 11.9 km/h 52 % 0 mm
12:33 -11.6 °C -16.7 °C 34327.3 hPa SW 6.8 km/h 6.8 km/h 53 % 0 mm
12:38 -11.6 °C -16.7 °C 34327.3 hPa SSW 11.9 km/h 11.9 km/h 53 % 0 mm
12:43 -11.5 °C -16.8 °C 34327.3 hPa SW 6.3 km/h 6.3 km/h 52 % 0 mm
12:48 -11.5 °C -16.8 °C 34327.3 hPa WSW 11.9 km/h 11.9 km/h 52 % 0 mm
12:53 -11.4 °C -16.7 °C 34327.3 hPa WNW 9 km/h 9 km/h 52 % 0 mm
12:58 -11.4 °C -16.7 °C 34327.3 hPa WSW 11.9 km/h 11.9 km/h 52 % 0 mm
13:03 -11.4 °C -16.7 °C 34327.3 hPa WSW 9 km/h 9 km/h 52 % 0 mm
13:08 -11.4 °C -16.7 °C 34327.3 hPa WNW 15 km/h 15 km/h 52 % 0 mm
13:13 -11.3 °C -16.8 °C 34293.4 hPa WSW 22 km/h 22 km/h 51 % 0 mm
13:18 -11.2 °C -16.7 °C 34293.4 hPa WSW 20.9 km/h 20.9 km/h 51 % 0 mm
13:23 -11.1 °C -16.5 °C 34293.4 hPa ENE 17.9 km/h 17.9 km/h 51 % 0 mm
13:28 -10.9 °C -16.4 °C 34222.3 hPa WSW 15 km/h 15 km/h 51 % 0 mm
13:33 -10.7 °C -16.2 °C 34222.3 hPa NNW 15 km/h 15 km/h 51 % 0 mm
13:38 -10.6 °C -16.1 °C 34222.3 hPa WSW 20.9 km/h 20.9 km/h 51 % 0 mm
13:43 -10.7 °C -16.3 °C 34256.2 hPa WSW 20.9 km/h 20.9 km/h 50 % 0 mm
13:48 -10.7 °C -16.2 °C 34256.2 hPa WSW 14 km/h 14 km/h 51 % 0 mm
13:53 -10.7 °C -16.3 °C 34256.2 hPa WSW 20.9 km/h 20.9 km/h 50 % 0 mm
13:58 -10.7 °C -16.3 °C 34256.2 hPa West 20.9 km/h 20.9 km/h 50 % 0 mm
14:03 -10.6 °C -16.1 °C 34256.2 hPa WSW 14.5 km/h 14.5 km/h 51 % 0 mm
14:08 -10.6 °C -16.3 °C 34256.2 hPa WSW 17.9 km/h 17.9 km/h 50 % 0 mm
14:13 -10.7 °C -16.3 °C 34222.3 hPa NW 26.9 km/h 26.9 km/h 50 % 0 mm
14:18 -10.7 °C -16.3 °C 34222.3 hPa SSW 20.9 km/h 20.9 km/h 50 % 0 mm
14:23 -10.7 °C -16.3 °C 34222.3 hPa West 15 km/h 15 km/h 50 % 0 mm
14:28 -10.8 °C -16.4 °C 34222.3 hPa WSW 35.7 km/h 35.7 km/h 50 % 0 mm
14:33 -10.8 °C -16.4 °C 34222.3 hPa WSW 11.9 km/h 11.9 km/h 50 % 0 mm
14:38 -10.8 °C -16.5 °C 34222.3 hPa SW 35.7 km/h 35.7 km/h 50 % 0 mm
14:43 -10.8 °C -16.4 °C 34198.6 hPa WNW 20.9 km/h 20.9 km/h 50 % 0 mm
14:48 -10.7 °C -16.3 °C 34198.6 hPa West 16.6 km/h 16.6 km/h 50 % 0 mm
14:53 -10.7 °C -16.3 °C 34198.6 hPa WSW 35.7 km/h 35.7 km/h 50 % 0 mm
14:58 -10.7 °C -16.3 °C 34198.6 hPa WNW 20.9 km/h 20.9 km/h 50 % 0 mm
15:03 -10.8 °C -16.5 °C 34198.6 hPa ESE 26.9 km/h 26.9 km/h 50 % 0 mm
15:08 -10.9 °C -16.5 °C 34198.6 hPa West 17.9 km/h 17.9 km/h 50 % 0 mm
15:13 -11 °C -16.6 °C 34198.6 hPa WNW 15 km/h 15.3 km/h 50 % 0 mm
15:18 -11 °C -16.6 °C 34198.6 hPa WSW 11.9 km/h 11.9 km/h 50 % 0 mm
15:23 -11.1 °C -16.7 °C 34198.6 hPa SW 20.9 km/h 20.9 km/h 50 % 0 mm
15:28 -11.1 °C -16.5 °C 34198.6 hPa West 7.6 km/h 7.6 km/h 51 % 0 mm
15:33 -11.1 °C -16.6 °C 34198.6 hPa SW 17.9 km/h 17.9 km/h 51 % 0 mm
15:38 -11.2 °C -16.6 °C 34198.6 hPa WSW 11.9 km/h 11.9 km/h 51 % 0 mm
15:43 -11.2 °C -16.6 °C 34198.6 hPa West 11.9 km/h 11.9 km/h 51 % 0 mm
15:48 -11.2 °C -16.6 °C 34198.6 hPa WSW 15 km/h 15 km/h 51 % 0 mm
15:53 -11.2 °C -16.7 °C 34198.6 hPa WSW 15 km/h 15 km/h 51 % 0 mm
15:58 -11.2 °C -16.7 °C 34164.7 hPa SW 11.9 km/h 11.9 km/h 51 % 0 mm
16:03 -11.2 °C -16.7 °C 34164.7 hPa WSW 22 km/h 22 km/h 51 % 0 mm
16:08 -11.3 °C -16.7 °C 34164.7 hPa WNW 25.4 km/h 25.4 km/h 51 % 0 mm
16:13 -11.3 °C -16.7 °C 34164.7 hPa West 23.8 km/h 23.8 km/h 51 % 0 mm
16:18 -11.3 °C -16.6 °C 34164.7 hPa West 23.8 km/h 23.8 km/h 52 % 0 mm
16:24 -11.3 °C -16.6 °C 34164.7 hPa West 17.9 km/h 17.9 km/h 52 % 0 mm
16:29 -11.3 °C -16.6 °C 34164.7 hPa SSW 20.9 km/h 20.9 km/h 52 % 0 mm
16:34 -11.4 °C -16.7 °C 34164.7 hPa WSW 6 km/h 11.6 km/h 52 % 0 mm
16:39 -11.4 °C -16.7 °C 34164.7 hPa WSW 12.7 km/h 16.6 km/h 52 % 0 mm
16:44 -11.4 °C -16.7 °C 34198.6 hPa WSW 20.9 km/h 20.9 km/h 52 % 0 mm
16:49 -11.4 °C -16.7 °C 34198.6 hPa SW 20.9 km/h 20.9 km/h 52 % 0 mm
16:54 -11.4 °C -16.7 °C 34198.6 hPa SW 9 km/h 14.5 km/h 52 % 0 mm
16:59 -11.5 °C -16.6 °C 34164.7 hPa SW 9 km/h 14.5 km/h 53 % 0 mm
17:04 -11.5 °C -16.6 °C 34164.7 hPa SW 9 km/h 14.5 km/h 53 % 0 mm
17:09 -11.5 °C -16.6 °C 34164.7 hPa SW 9 km/h 14.5 km/h 53 % 0 mm
17:14 -11.6 °C -16.7 °C 34164.7 hPa SW 9 km/h 14.5 km/h 53 % 0 mm
17:19 -11.6 °C -16.7 °C 34164.7 hPa SW 9 km/h 14.5 km/h 53 % 0 mm
17:24 -11.6 °C -16.6 °C 34164.7 hPa SW 15.6 km/h 15.6 km/h 54 % 0 mm
17:29 -11.7 °C -16.6 °C 34164.7 hPa WNW 15.3 km/h 15.3 km/h 54 % 0 mm
17:34 -11.7 °C -16.6 °C 34164.7 hPa WSW 22 km/h 22 km/h 54 % 0 mm
17:39 -11.7 °C -16.6 °C 34164.7 hPa WSW 17.9 km/h 17.9 km/h 55 % 0 mm
17:44 -11.8 °C -16.6 °C 34164.7 hPa WSW 15 km/h 15 km/h 55 % 0 mm
17:49 -11.8 °C -16.4 °C 34164.7 hPa SW 15.6 km/h 15.6 km/h 56 % 0 mm
17:54 -11.8 °C -16.5 °C 34164.7 hPa SSW 15.6 km/h 15.6 km/h 56 % 0 mm
17:59 -11.9 °C -16.4 °C 34164.7 hPa SW 14 km/h 14 km/h 57 % 0 mm
18:04 -11.9 °C -16.3 °C 34164.7 hPa South 17.9 km/h 17.9 km/h 58 % 0 mm
18:09 -11.9 °C -16.2 °C 34164.7 hPa SW 12.7 km/h 14 km/h 59 % 0 mm
18:14 -11.9 °C -16.2 °C 34130.9 hPa WSW 11.9 km/h 11.9 km/h 59 % 0 mm
18:19 -11.9 °C -16.1 °C 34130.9 hPa SW 15 km/h 15 km/h 60 % 0 mm
18:24 -12 °C -16 °C 34130.9 hPa WSW 15 km/h 15 km/h 61 % 0 mm
18:34 -12 °C -16 °C 34164.7 hPa WSW 15 km/h 15 km/h 61 % 0 mm
18:39 -12.1 °C -15.9 °C 34164.7 hPa WSW 15 km/h 15 km/h 62 % 0 mm
18:44 -12.1 °C -15.9 °C 34130.9 hPa WSW 15 km/h 15.3 km/h 62 % 0 mm
18:49 -12.1 °C -15.9 °C 34130.9 hPa WSW 15 km/h 15 km/h 63 % 0 mm
18:54 -12.1 °C -15.9 °C 34130.9 hPa WSW 15 km/h 15 km/h 63 % 0 mm
18:59 -12.1 °C -15.9 °C 34130.9 hPa West 19.2 km/h 19.2 km/h 63 % 0 mm
19:04 -12.2 °C -15.8 °C 34130.9 hPa WSW 11.9 km/h 11.9 km/h 64 % 0 mm
19:09 -12.2 °C -15.8 °C 34130.9 hPa SSW 15.3 km/h 15.3 km/h 64 % 0 mm
19:14 -12.2 °C -15.8 °C 34130.9 hPa SSW 15.3 km/h 15.3 km/h 64 % 0 mm
19:19 -12.2 °C -15.7 °C 34130.9 hPa WSW 23.8 km/h 23.8 km/h 65 % 0 mm
19:24 -12.2 °C -15.7 °C 34130.9 hPa SW 18.3 km/h 18.3 km/h 65 % 0 mm
19:29 -12.2 °C -15.7 °C 34130.9 hPa West 11.9 km/h 12.2 km/h 65 % 0 mm
19:34 -12.2 °C -15.7 °C 34130.9 hPa WSW 15 km/h 15 km/h 65 % 0 mm
19:39 -12.2 °C -15.6 °C 34130.9 hPa WSW 17.9 km/h 17.9 km/h 66 % 0 mm
19:44 -12.2 °C -15.6 °C 34130.9 hPa WSW 11.9 km/h 11.9 km/h 66 % 0 mm
19:49 -12.2 °C -15.6 °C 34130.9 hPa WSW 9.3 km/h 9.3 km/h 66 % 0 mm
19:54 -12.2 °C -15.6 °C 34130.9 hPa WSW 11.9 km/h 11.9 km/h 66 % 0 mm
19:59 -12.2 °C -15.6 °C 34130.9 hPa WSW 11.9 km/h 11.9 km/h 66 % 0 mm
20:04 -12.2 °C -15.6 °C 34130.9 hPa WSW 16.1 km/h 16.1 km/h 66 % 0 mm
20:14 -12.2 °C -15.4 °C 34164.7 hPa West 9 km/h 9.8 km/h 67 % 0 mm
20:19 -12.2 °C -15.4 °C 34164.7 hPa WSW 7.6 km/h 8.5 km/h 67 % 0 mm
20:24 -12.2 °C -15.4 °C 34164.7 hPa WSW 7.6 km/h 8.5 km/h 67 % 0 mm
20:29 -12.3 °C -15.5 °C 34130.9 hPa WSW 11.9 km/h 12.2 km/h 67 % 0 mm
20:34 -12.3 °C -15.5 °C 34130.9 hPa WSW 12.2 km/h 17.4 km/h 67 % 0 mm
20:39 -12.3 °C -15.5 °C 34130.9 hPa SW 25.1 km/h 25.1 km/h 67 % 0 mm
20:44 -12.3 °C -15.5 °C 34130.9 hPa WSW 14.5 km/h 14.5 km/h 67 % 0 mm
20:49 -12.3 °C -15.4 °C 34130.9 hPa WSW 23.8 km/h 23.8 km/h 68 % 0 mm
20:54 -12.3 °C -15.4 °C 34130.9 hPa WSW 23.8 km/h 23.8 km/h 68 % 0 mm
20:59 -12.2 °C -15.4 °C 34130.9 hPa WSW 15 km/h 15 km/h 68 % 0 mm
21:04 -12.2 °C -15.4 °C 34130.9 hPa WSW 9 km/h 14.5 km/h 68 % 0 mm
21:09 -12.3 °C -15.4 °C 34130.9 hPa WSW 9 km/h 14.5 km/h 68 % 0 mm
21:14 -12.3 °C -15.4 °C 34130.9 hPa WSW 9 km/h 14.5 km/h 68 % 0 mm
21:19 -12.3 °C -15.4 °C 34130.9 hPa WSW 9 km/h 14.5 km/h 68 % 0 mm
21:24 -12.3 °C -15.4 °C 34130.9 hPa WSW 9 km/h 14.5 km/h 68 % 0 mm
21:29 -12.3 °C -15.4 °C 34130.9 hPa WSW 9 km/h 14.5 km/h 68 % 0 mm
21:34 -12.3 °C -15.4 °C 34130.9 hPa WSW 9 km/h 14.5 km/h 68 % 0 mm
21:39 -12.3 °C -15.3 °C 34130.9 hPa WSW 9 km/h 14.5 km/h 69 % 0 mm
21:44 -12.3 °C -15.3 °C 34130.9 hPa WSW 9 km/h 14.5 km/h 69 % 0 mm
21:49 -12.3 °C -15.3 °C 34130.9 hPa WSW 9 km/h 14.5 km/h 69 % 0 mm
21:54 -12.3 °C -15.3 °C 34130.9 hPa WSW 9 km/h 14.5 km/h 69 % 0 mm
21:59 -12.3 °C -15.3 °C 34097 hPa WSW 9 km/h 14.5 km/h 69 % 0 mm
22:04 -12.4 °C -15.4 °C 34097 hPa WSW 9 km/h 14.5 km/h 69 % 0 mm
22:09 -12.4 °C -15.4 °C 34097 hPa WSW 9 km/h 14.5 km/h 69 % 0 mm
22:14 -12.4 °C -15.4 °C 34097 hPa WSW 9 km/h 14.5 km/h 69 % 0 mm
22:19 -12.4 °C -15.4 °C 34097 hPa WSW 9 km/h 14.5 km/h 69 % 0 mm
22:24 -12.4 °C -15.4 °C 34097 hPa WSW 9 km/h 14.5 km/h 69 % 0 mm
22:29 -12.4 °C -15.4 °C 34097 hPa WSW 9 km/h 14.5 km/h 69 % 0 mm
22:34 -12.4 °C -15.4 °C 34097 hPa WSW 9 km/h 14.5 km/h 69 % 0 mm
22:39 -12.4 °C -15.4 °C 34097 hPa WSW 9 km/h 14.5 km/h 69 % 0 mm
22:44 -12.5 °C -15.5 °C 34097 hPa WSW 9 km/h 14.5 km/h 69 % 0 mm
22:49 -12.4 °C -15.4 °C 34097 hPa WSW 9 km/h 14.5 km/h 69 % 0 mm
22:54 -12.4 °C -15.4 °C 34097 hPa WSW 9 km/h 14.5 km/h 69 % 0 mm
22:59 -12.4 °C -15.4 °C 34097 hPa WSW 9 km/h 14.5 km/h 69 % 0 mm
23:04 -12.3 °C -15.3 °C 34097 hPa WSW 9 km/h 14.5 km/h 69 % 0 mm
23:09 -12.3 °C -15.3 °C 34097 hPa WSW 9 km/h 14.5 km/h 69 % 0 mm
23:14 -12.3 °C -15.3 °C 34063.2 hPa WSW 9 km/h 14.5 km/h 69 % 0 mm
23:19 -12.3 °C -15.3 °C 34063.2 hPa WSW 9 km/h 14.5 km/h 69 % 0 mm
23:24 -12.3 °C -15.3 °C 34063.2 hPa WSW 9 km/h 14.5 km/h 69 % 0 mm
23:29 -12.2 °C -15.2 °C 34063.2 hPa WSW 9 km/h 14.5 km/h 69 % 0 mm
Meteo Sesrovires
Elogis d' Weather Underground - 2 mb

Guio original per  Jim McMurry - jmcmurry@mwt.net Adaptat per a la plantilla per  Wim van der Kuil - Leuven-Template.eu

Trobareu la nostra informacio del temps tambe a:

Weather Underground

AWEKAS